sensor_id;sensor_type;location;lat;lon;timestamp;P1;durP1;ratioP1;P2;durP2;ratioP2
31618;SDS011;18230;51.502;7.108;2024-03-02T00:01:43;3.92;;;1.98;;
31618;SDS011;18230;51.502;7.108;2024-03-02T00:06:44;4.85;;;2.63;;
31618;SDS011;18230;51.502;7.108;2024-03-02T00:11:45;4.72;;;3.03;;
31618;SDS011;18230;51.502;7.108;2024-03-02T00:16:45;5.47;;;2.42;;
31618;SDS011;18230;51.502;7.108;2024-03-02T00:21:46;4.82;;;2.42;;
31618;SDS011;18230;51.502;7.108;2024-03-02T00:26:47;4.40;;;2.28;;
31618;SDS011;18230;51.502;7.108;2024-03-02T00:31:48;3.95;;;2.08;;
31618;SDS011;18230;51.502;7.108;2024-03-02T00:36:49;4.13;;;1.92;;
31618;SDS011;18230;51.502;7.108;2024-03-02T00:41:49;7.35;;;2.05;;
31618;SDS011;18230;51.502;7.108;2024-03-02T00:46:53;4.47;;;2.22;;
31618;SDS011;18230;51.502;7.108;2024-03-02T00:51:54;1.83;;;1.30;;
31618;SDS011;18230;51.502;7.108;2024-03-02T00:56:55;2.33;;;1.58;;
31618;SDS011;18230;51.502;7.108;2024-03-02T01:01:56;3.42;;;1.80;;
31618;SDS011;18230;51.502;7.108;2024-03-02T01:06:56;5.05;;;1.50;;
31618;SDS011;18230;51.502;7.108;2024-03-02T01:11:58;2.60;;;1.23;;
31618;SDS011;18230;51.502;7.108;2024-03-02T01:16:59;7.07;;;1.58;;
31618;SDS011;18230;51.502;7.108;2024-03-02T01:22:00;5.63;;;1.50;;
31618;SDS011;18230;51.502;7.108;2024-03-02T01:27:00;4.10;;;1.60;;
31618;SDS011;18230;51.502;7.108;2024-03-02T01:32:01;3.35;;;1.90;;
31618;SDS011;18230;51.502;7.108;2024-03-02T01:37:01;4.80;;;1.70;;
31618;SDS011;18230;51.502;7.108;2024-03-02T01:42:03;2.60;;;1.40;;
31618;SDS011;18230;51.502;7.108;2024-03-02T01:47:03;3.30;;;1.48;;
31618;SDS011;18230;51.502;7.108;2024-03-02T01:52:04;4.72;;;1.50;;
31618;SDS011;18230;51.502;7.108;2024-03-02T01:57:04;3.80;;;1.40;;
31618;SDS011;18230;51.502;7.108;2024-03-02T02:02:06;3.33;;;1.38;;
31618;SDS011;18230;51.502;7.108;2024-03-02T02:07:07;4.60;;;1.00;;
31618;SDS011;18230;51.502;7.108;2024-03-02T02:12:09;3.72;;;1.30;;
31618;SDS011;18230;51.502;7.108;2024-03-02T02:17:12;3.00;;;1.20;;
31618;SDS011;18230;51.502;7.108;2024-03-02T02:22:13;2.67;;;1.23;;
31618;SDS011;18230;51.502;7.108;2024-03-02T02:27:14;4.28;;;1.52;;
31618;SDS011;18230;51.502;7.108;2024-03-02T02:32:15;4.40;;;1.25;;
31618;SDS011;18230;51.502;7.108;2024-03-02T02:37:15;3.30;;;1.30;;
31618;SDS011;18230;51.502;7.108;2024-03-02T02:42:16;4.10;;;1.10;;
31618;SDS011;18230;51.502;7.108;2024-03-02T02:47:17;3.38;;;1.30;;
31618;SDS011;18230;51.502;7.108;2024-03-02T02:52:17;2.92;;;1.10;;
31618;SDS011;18230;51.502;7.108;2024-03-02T02:57:18;2.40;;;1.20;;
31618;SDS011;18230;51.502;7.108;2024-03-02T03:02:19;4.72;;;1.45;;
31618;SDS011;18230;51.502;7.108;2024-03-02T03:07:19;3.33;;;1.55;;
31618;SDS011;18230;51.502;7.108;2024-03-02T03:12:20;2.63;;;1.23;;
31618;SDS011;18230;51.502;7.108;2024-03-02T03:17:21;3.55;;;1.35;;
31618;SDS011;18230;51.502;7.108;2024-03-02T03:22:22;3.28;;;1.40;;
31618;SDS011;18230;51.502;7.108;2024-03-02T03:27:22;2.50;;;1.10;;
31618;SDS011;18230;51.502;7.108;2024-03-02T03:32:23;3.15;;;1.33;;
31618;SDS011;18230;51.502;7.108;2024-03-02T03:37:24;4.63;;;1.30;;
31618;SDS011;18230;51.502;7.108;2024-03-02T03:42:26;2.53;;;1.30;;
31618;SDS011;18230;51.502;7.108;2024-03-02T03:47:27;4.93;;;1.52;;
31618;SDS011;18230;51.502;7.108;2024-03-02T03:52:28;2.78;;;1.30;;
31618;SDS011;18230;51.502;7.108;2024-03-02T03:57:28;4.93;;;2.15;;
31618;SDS011;18230;51.502;7.108;2024-03-02T04:02:29;3.53;;;1.30;;
31618;SDS011;18230;51.502;7.108;2024-03-02T04:07:29;4.75;;;1.45;;
31618;SDS011;18230;51.502;7.108;2024-03-02T04:12:30;3.53;;;1.38;;
31618;SDS011;18230;51.502;7.108;2024-03-02T04:17:31;3.28;;;1.27;;
31618;SDS011;18230;51.502;7.108;2024-03-02T04:22:33;2.60;;;1.10;;
31618;SDS011;18230;51.502;7.108;2024-03-02T04:27:35;2.15;;;1.10;;
31618;SDS011;18230;51.502;7.108;2024-03-02T04:32:35;4.60;;;1.52;;
31618;SDS011;18230;51.502;7.108;2024-03-02T04:37:36;1.98;;;1.00;;
31618;SDS011;18230;51.502;7.108;2024-03-02T04:42:37;2.97;;;1.30;;
31618;SDS011;18230;51.502;7.108;2024-03-02T04:47:37;2.35;;;1.05;;
31618;SDS011;18230;51.502;7.108;2024-03-02T04:52:38;2.72;;;1.27;;
31618;SDS011;18230;51.502;7.108;2024-03-02T04:57:39;4.53;;;1.40;;
31618;SDS011;18230;51.502;7.108;2024-03-02T05:02:40;4.03;;;1.25;;
31618;SDS011;18230;51.502;7.108;2024-03-02T05:07:41;2.35;;;1.27;;
31618;SDS011;18230;51.502;7.108;2024-03-02T05:12:44;4.07;;;1.30;;
31618;SDS011;18230;51.502;7.108;2024-03-02T05:17:45;3.60;;;1.30;;
31618;SDS011;18230;51.502;7.108;2024-03-02T05:22:45;3.40;;;1.40;;
31618;SDS011;18230;51.502;7.108;2024-03-02T05:27:47;2.83;;;1.33;;
31618;SDS011;18230;51.502;7.108;2024-03-02T05:32:47;3.70;;;1.52;;
31618;SDS011;18230;51.502;7.108;2024-03-02T05:37:58;3.15;;;1.42;;
31618;SDS011;18230;51.502;7.108;2024-03-02T05:42:59;2.78;;;1.55;;
31618;SDS011;18230;51.502;7.108;2024-03-02T05:47:59;2.38;;;1.20;;
31618;SDS011;18230;51.502;7.108;2024-03-02T05:53:00;2.78;;;1.25;;
31618;SDS011;18230;51.502;7.108;2024-03-02T05:58:00;5.18;;;1.52;;
31618;SDS011;18230;51.502;7.108;2024-03-02T06:03:07;9.70;;;2.10;;
31618;SDS011;18230;51.502;7.108;2024-03-02T06:08:09;3.25;;;1.20;;
31618;SDS011;18230;51.502;7.108;2024-03-02T06:13:09;3.85;;;1.77;;
31618;SDS011;18230;51.502;7.108;2024-03-02T06:18:10;6.15;;;1.90;;
31618;SDS011;18230;51.502;7.108;2024-03-02T06:23:11;5.85;;;1.65;;
31618;SDS011;18230;51.502;7.108;2024-03-02T06:28:11;3.75;;;1.75;;
31618;SDS011;18230;51.502;7.108;2024-03-02T06:33:15;3.42;;;1.75;;
31618;SDS011;18230;51.502;7.108;2024-03-02T06:38:16;3.55;;;1.67;;
31618;SDS011;18230;51.502;7.108;2024-03-02T06:43:16;4.30;;;1.95;;
31618;SDS011;18230;51.502;7.108;2024-03-02T06:48:17;3.30;;;1.90;;
31618;SDS011;18230;51.502;7.108;2024-03-02T06:53:20;7.65;;;2.05;;
31618;SDS011;18230;51.502;7.108;2024-03-02T06:58:21;6.32;;;2.55;;
31618;SDS011;18230;51.502;7.108;2024-03-02T07:03:21;5.93;;;2.53;;
31618;SDS011;18230;51.502;7.108;2024-03-02T07:08:22;6.40;;;2.05;;
31618;SDS011;18230;51.502;7.108;2024-03-02T07:13:23;6.28;;;2.63;;
31618;SDS011;18230;51.502;7.108;2024-03-02T07:18:23;5.38;;;2.67;;
31618;SDS011;18230;51.502;7.108;2024-03-02T07:23:24;5.97;;;2.40;;
31618;SDS011;18230;51.502;7.108;2024-03-02T07:28:27;5.63;;;2.90;;
31618;SDS011;18230;51.502;7.108;2024-03-02T07:33:31;4.70;;;2.40;;
31618;SDS011;18230;51.502;7.108;2024-03-02T07:38:32;6.30;;;2.47;;
31618;SDS011;18230;51.502;7.108;2024-03-02T07:43:34;6.75;;;2.30;;
31618;SDS011;18230;51.502;7.108;2024-03-02T07:48:35;6.40;;;2.58;;
31618;SDS011;18230;51.502;7.108;2024-03-02T07:53:35;6.82;;;2.60;;
31618;SDS011;18230;51.502;7.108;2024-03-02T07:58:36;5.88;;;2.50;;
31618;SDS011;18230;51.502;7.108;2024-03-02T08:03:37;5.82;;;2.70;;
31618;SDS011;18230;51.502;7.108;2024-03-02T08:08:37;4.85;;;2.55;;
31618;SDS011;18230;51.502;7.108;2024-03-02T08:13:39;5.18;;;2.50;;
31618;SDS011;18230;51.502;7.108;2024-03-02T08:18:39;4.57;;;2.38;;
31618;SDS011;18230;51.502;7.108;2024-03-02T08:23:40;4.85;;;2.05;;
31618;SDS011;18230;51.502;7.108;2024-03-02T08:28:42;5.85;;;2.35;;
31618;SDS011;18230;51.502;7.108;2024-03-02T08:33:43;4.40;;;2.30;;
31618;SDS011;18230;51.502;7.108;2024-03-02T08:38:43;11.77;;;2.30;;
31618;SDS011;18230;51.502;7.108;2024-03-02T08:43:44;5.80;;;2.35;;
31618;SDS011;18230;51.502;7.108;2024-03-02T08:48:45;4.05;;;2.13;;
31618;SDS011;18230;51.502;7.108;2024-03-02T08:53:45;4.90;;;1.98;;
31618;SDS011;18230;51.502;7.108;2024-03-02T08:58:46;3.40;;;1.92;;
31618;SDS011;18230;51.502;7.108;2024-03-02T09:03:46;6.32;;;1.70;;
31618;SDS011;18230;51.502;7.108;2024-03-02T09:08:49;4.57;;;1.60;;
31618;SDS011;18230;51.502;7.108;2024-03-02T09:13:51;2.97;;;1.75;;
31618;SDS011;18230;51.502;7.108;2024-03-02T09:18:53;4.45;;;1.30;;
31618;SDS011;18230;51.502;7.108;2024-03-02T09:23:53;2.00;;;1.30;;
31618;SDS011;18230;51.502;7.108;2024-03-02T09:28:54;3.70;;;1.80;;
31618;SDS011;18230;51.502;7.108;2024-03-02T09:33:55;3.03;;;1.10;;
31618;SDS011;18230;51.502;7.108;2024-03-02T09:38:55;4.05;;;1.33;;
31618;SDS011;18230;51.502;7.108;2024-03-02T09:43:56;3.78;;;1.15;;
31618;SDS011;18230;51.502;7.108;2024-03-02T09:48:58;4.95;;;1.40;;
31618;SDS011;18230;51.502;7.108;2024-03-02T09:54:00;3.28;;;1.33;;
31618;SDS011;18230;51.502;7.108;2024-03-02T09:59:01;2.10;;;1.20;;
31618;SDS011;18230;51.502;7.108;2024-03-02T10:04:02;4.43;;;1.30;;
31618;SDS011;18230;51.502;7.108;2024-03-02T10:09:02;6.80;;;1.30;;
31618;SDS011;18230;51.502;7.108;2024-03-02T10:14:10;4.28;;;1.20;;
31618;SDS011;18230;51.502;7.108;2024-03-02T10:19:22;2.08;;;1.00;;
31618;SDS011;18230;51.502;7.108;2024-03-02T10:24:24;2.40;;;1.23;;
31618;SDS011;18230;51.502;7.108;2024-03-02T10:29:25;3.78;;;1.10;;
31618;SDS011;18230;51.502;7.108;2024-03-02T10:34:29;4.25;;;1.10;;
31618;SDS011;18230;51.502;7.108;2024-03-02T10:39:31;2.50;;;1.10;;
31618;SDS011;18230;51.502;7.108;2024-03-02T10:44:32;3.67;;;1.60;;
31618;SDS011;18230;51.502;7.108;2024-03-02T10:49:33;4.88;;;1.40;;
31618;SDS011;18230;51.502;7.108;2024-03-02T10:54:34;8.80;;;1.30;;
31618;SDS011;18230;51.502;7.108;2024-03-02T10:59:45;1.52;;;1.10;;
31618;SDS011;18230;51.502;7.108;2024-03-02T11:04:56;3.58;;;1.30;;
31618;SDS011;18230;51.502;7.108;2024-03-02T11:10:02;3.88;;;1.20;;
31618;SDS011;18230;51.502;7.108;2024-03-02T11:15:09;3.63;;;1.13;;
31618;SDS011;18230;51.502;7.108;2024-03-02T11:20:11;2.17;;;0.80;;
31618;SDS011;18230;51.502;7.108;2024-03-02T11:25:26;3.63;;;1.50;;
31618;SDS011;18230;51.502;7.108;2024-03-02T11:35:35;3.53;;;0.98;;
31618;SDS011;18230;51.502;7.108;2024-03-02T11:40:36;2.22;;;0.90;;
31618;SDS011;18230;51.502;7.108;2024-03-02T11:45:38;2.40;;;1.17;;
31618;SDS011;18230;51.502;7.108;2024-03-02T11:50:47;3.60;;;1.17;;
31618;SDS011;18230;51.502;7.108;2024-03-02T11:55:51;4.50;;;1.00;;
31618;SDS011;18230;51.502;7.108;2024-03-02T12:00:55;2.50;;;0.80;;
31618;SDS011;18230;51.502;7.108;2024-03-02T12:05:56;2.95;;;1.27;;
31618;SDS011;18230;51.502;7.108;2024-03-02T12:10:58;2.17;;;0.90;;
31618;SDS011;18230;51.502;7.108;2024-03-02T12:16:00;3.00;;;1.08;;
31618;SDS011;18230;51.502;7.108;2024-03-02T12:21:01;2.13;;;0.93;;
31618;SDS011;18230;51.502;7.108;2024-03-02T12:26:03;4.30;;;1.00;;
31618;SDS011;18230;51.502;7.108;2024-03-02T12:31:03;6.05;;;1.00;;
31618;SDS011;18230;51.502;7.108;2024-03-02T12:36:04;5.05;;;1.27;;
31618;SDS011;18230;51.502;7.108;2024-03-02T12:41:05;2.83;;;1.05;;
31618;SDS011;18230;51.502;7.108;2024-03-02T12:46:05;1.55;;;0.93;;
31618;SDS011;18230;51.502;7.108;2024-03-02T12:51:06;4.57;;;1.20;;
31618;SDS011;18230;51.502;7.108;2024-03-02T12:56:07;1.83;;;0.88;;
31618;SDS011;18230;51.502;7.108;2024-03-02T13:01:09;1.45;;;0.88;;
31618;SDS011;18230;51.502;7.108;2024-03-02T13:06:10;1.83;;;0.60;;
31618;SDS011;18230;51.502;7.108;2024-03-02T13:11:11;3.03;;;0.95;;
31618;SDS011;18230;51.502;7.108;2024-03-02T13:16:12;1.75;;;0.95;;
31618;SDS011;18230;51.502;7.108;2024-03-02T13:21:13;2.22;;;0.80;;
31618;SDS011;18230;51.502;7.108;2024-03-02T13:26:14;2.92;;;1.02;;
31618;SDS011;18230;51.502;7.108;2024-03-02T13:31:15;3.35;;;1.00;;
31618;SDS011;18230;51.502;7.108;2024-03-02T13:36:15;1.65;;;0.70;;
31618;SDS011;18230;51.502;7.108;2024-03-02T13:41:18;1.70;;;0.80;;
31618;SDS011;18230;51.502;7.108;2024-03-02T13:46:20;1.73;;;0.77;;
31618;SDS011;18230;51.502;7.108;2024-03-02T13:51:22;1.15;;;0.63;;
31618;SDS011;18230;51.502;7.108;2024-03-02T13:56:22;2.08;;;0.70;;
31618;SDS011;18230;51.502;7.108;2024-03-02T14:01:23;0.80;;;0.60;;
31618;SDS011;18230;51.502;7.108;2024-03-02T14:06:24;2.15;;;0.80;;
31618;SDS011;18230;51.502;7.108;2024-03-02T14:11:26;1.02;;;0.70;;
31618;SDS011;18230;51.502;7.108;2024-03-02T14:16:27;1.60;;;0.73;;
31618;SDS011;18230;51.502;7.108;2024-03-02T14:21:28;1.27;;;0.80;;
31618;SDS011;18230;51.502;7.108;2024-03-02T14:26:28;1.50;;;0.65;;
31618;SDS011;18230;51.502;7.108;2024-03-02T14:31:29;3.28;;;1.20;;
31618;SDS011;18230;51.502;7.108;2024-03-02T14:36:31;2.58;;;1.77;;
31618;SDS011;18230;51.502;7.108;2024-03-02T14:41:34;2.67;;;1.30;;
31618;SDS011;18230;51.502;7.108;2024-03-02T14:46:37;1.63;;;1.00;;
31618;SDS011;18230;51.502;7.108;2024-03-02T14:51:38;1.75;;;1.00;;
31618;SDS011;18230;51.502;7.108;2024-03-02T14:56:39;1.15;;;0.93;;
31618;SDS011;18230;51.502;7.108;2024-03-02T15:01:39;2.53;;;1.30;;
31618;SDS011;18230;51.502;7.108;2024-03-02T15:06:40;0.95;;;0.82;;
31618;SDS011;18230;51.502;7.108;2024-03-02T15:11:41;1.73;;;0.80;;
31618;SDS011;18230;51.502;7.108;2024-03-02T15:16:43;0.82;;;0.70;;
31618;SDS011;18230;51.502;7.108;2024-03-02T15:21:44;1.20;;;0.95;;
31618;SDS011;18230;51.502;7.108;2024-03-02T15:26:44;2.72;;;1.58;;
31618;SDS011;18230;51.502;7.108;2024-03-02T15:31:45;6.43;;;1.20;;
31618;SDS011;18230;51.502;7.108;2024-03-02T15:36:46;2.25;;;1.55;;
31618;SDS011;18230;51.502;7.108;2024-03-02T15:41:46;1.60;;;1.27;;
31618;SDS011;18230;51.502;7.108;2024-03-02T15:46:47;3.35;;;1.95;;
31618;SDS011;18230;51.502;7.108;2024-03-02T15:51:48;5.20;;;1.60;;
31618;SDS011;18230;51.502;7.108;2024-03-02T15:56:48;4.40;;;2.08;;
31618;SDS011;18230;51.502;7.108;2024-03-02T16:01:49;1.50;;;1.20;;
31618;SDS011;18230;51.502;7.108;2024-03-02T16:06:49;2.03;;;1.30;;
31618;SDS011;18230;51.502;7.108;2024-03-02T16:11:50;2.05;;;1.38;;
31618;SDS011;18230;51.502;7.108;2024-03-02T16:16:50;4.60;;;2.08;;
31618;SDS011;18230;51.502;7.108;2024-03-02T16:21:51;7.05;;;1.88;;
31618;SDS011;18230;51.502;7.108;2024-03-02T16:26:52;3.92;;;2.20;;
31618;SDS011;18230;51.502;7.108;2024-03-02T16:31:53;4.47;;;2.40;;
31618;SDS011;18230;51.502;7.108;2024-03-02T16:36:53;3.30;;;1.80;;
31618;SDS011;18230;51.502;7.108;2024-03-02T16:41:55;5.47;;;2.72;;
31618;SDS011;18230;51.502;7.108;2024-03-02T16:46:56;4.40;;;2.85;;
31618;SDS011;18230;51.502;7.108;2024-03-02T16:51:57;6.63;;;2.78;;
31618;SDS011;18230;51.502;7.108;2024-03-02T16:56:57;4.13;;;2.45;;
31618;SDS011;18230;51.502;7.108;2024-03-02T17:01:58;5.32;;;2.60;;
31618;SDS011;18230;51.502;7.108;2024-03-02T17:07:00;3.53;;;2.38;;
31618;SDS011;18230;51.502;7.108;2024-03-02T17:12:00;6.22;;;2.25;;
31618;SDS011;18230;51.502;7.108;2024-03-02T17:17:01;7.38;;;2.33;;
31618;SDS011;18230;51.502;7.108;2024-03-02T17:22:02;7.80;;;2.60;;
31618;SDS011;18230;51.502;7.108;2024-03-02T17:27:02;3.47;;;2.08;;
31618;SDS011;18230;51.502;7.108;2024-03-02T17:32:03;2.58;;;1.50;;
31618;SDS011;18230;51.502;7.108;2024-03-02T17:37:04;4.57;;;1.38;;
31618;SDS011;18230;51.502;7.108;2024-03-02T17:42:04;2.97;;;1.80;;
31618;SDS011;18230;51.502;7.108;2024-03-02T17:47:08;3.58;;;1.50;;
31618;SDS011;18230;51.502;7.108;2024-03-02T17:52:08;2.33;;;1.20;;
31618;SDS011;18230;51.502;7.108;2024-03-02T17:57:09;3.72;;;1.88;;
31618;SDS011;18230;51.502;7.108;2024-03-02T18:02:10;4.00;;;2.05;;
31618;SDS011;18230;51.502;7.108;2024-03-02T18:07:10;4.32;;;2.30;;
31618;SDS011;18230;51.502;7.108;2024-03-02T18:12:12;6.00;;;2.15;;
31618;SDS011;18230;51.502;7.108;2024-03-02T18:17:14;3.92;;;1.67;;
31618;SDS011;18230;51.502;7.108;2024-03-02T18:22:14;4.82;;;2.40;;
31618;SDS011;18230;51.502;7.108;2024-03-02T18:27:15;4.55;;;2.10;;
31618;SDS011;18230;51.502;7.108;2024-03-02T18:32:16;5.97;;;2.20;;
31618;SDS011;18230;51.502;7.108;2024-03-02T18:37:16;3.70;;;2.45;;
31618;SDS011;18230;51.502;7.108;2024-03-02T18:42:21;3.80;;;2.38;;
31618;SDS011;18230;51.502;7.108;2024-03-02T18:47:22;5.32;;;2.28;;
31618;SDS011;18230;51.502;7.108;2024-03-02T18:52:24;2.90;;;1.88;;
31618;SDS011;18230;51.502;7.108;2024-03-02T18:57:24;5.55;;;2.08;;
31618;SDS011;18230;51.502;7.108;2024-03-02T19:02:25;5.38;;;2.13;;
31618;SDS011;18230;51.502;7.108;2024-03-02T19:07:28;4.43;;;2.65;;
31618;SDS011;18230;51.502;7.108;2024-03-02T19:12:28;7.05;;;2.90;;
31618;SDS011;18230;51.502;7.108;2024-03-02T19:17:29;9.07;;;2.85;;
31618;SDS011;18230;51.502;7.108;2024-03-02T19:22:30;3.20;;;2.28;;
31618;SDS011;18230;51.502;7.108;2024-03-02T19:27:33;5.82;;;2.92;;
31618;SDS011;18230;51.502;7.108;2024-03-02T19:32:33;5.05;;;2.65;;
31618;SDS011;18230;51.502;7.108;2024-03-02T19:37:37;6.93;;;3.83;;
31618;SDS011;18230;51.502;7.108;2024-03-02T19:42:37;5.95;;;2.75;;
31618;SDS011;18230;51.502;7.108;2024-03-02T19:47:38;6.55;;;3.15;;
31618;SDS011;18230;51.502;7.108;2024-03-02T19:52:39;5.40;;;2.70;;
31618;SDS011;18230;51.502;7.108;2024-03-02T19:57:39;7.07;;;3.03;;
31618;SDS011;18230;51.502;7.108;2024-03-02T20:02:46;6.22;;;3.28;;
31618;SDS011;18230;51.502;7.108;2024-03-02T20:07:47;4.53;;;2.78;;
31618;SDS011;18230;51.502;7.108;2024-03-02T20:12:47;4.35;;;2.47;;
31618;SDS011;18230;51.502;7.108;2024-03-02T20:17:49;5.32;;;2.47;;
31618;SDS011;18230;51.502;7.108;2024-03-02T20:22:50;4.38;;;2.60;;
31618;SDS011;18230;51.502;7.108;2024-03-02T20:27:52;4.95;;;2.78;;
31618;SDS011;18230;51.502;7.108;2024-03-02T20:32:52;5.63;;;2.80;;
31618;SDS011;18230;51.502;7.108;2024-03-02T20:37:53;5.40;;;2.95;;
31618;SDS011;18230;51.502;7.108;2024-03-02T20:42:54;5.35;;;2.92;;
31618;SDS011;18230;51.502;7.108;2024-03-02T20:47:57;7.28;;;3.88;;
31618;SDS011;18230;51.502;7.108;2024-03-02T20:52:57;7.10;;;3.83;;
31618;SDS011;18230;51.502;7.108;2024-03-02T20:58:00;7.40;;;3.70;;
31618;SDS011;18230;51.502;7.108;2024-03-02T21:03:01;4.72;;;3.38;;
31618;SDS011;18230;51.502;7.108;2024-03-02T21:08:02;6.90;;;4.15;;
31618;SDS011;18230;51.502;7.108;2024-03-02T21:13:03;5.97;;;3.75;;
31618;SDS011;18230;51.502;7.108;2024-03-02T21:18:03;7.63;;;3.78;;
31618;SDS011;18230;51.502;7.108;2024-03-02T21:23:04;7.70;;;4.32;;
31618;SDS011;18230;51.502;7.108;2024-03-02T21:28:06;8.60;;;4.13;;
31618;SDS011;18230;51.502;7.108;2024-03-02T21:33:07;8.07;;;4.38;;
31618;SDS011;18230;51.502;7.108;2024-03-02T21:38:07;5.72;;;3.20;;
31618;SDS011;18230;51.502;7.108;2024-03-02T21:43:08;9.13;;;4.40;;
31618;SDS011;18230;51.502;7.108;2024-03-02T21:48:09;7.95;;;4.07;;
31618;SDS011;18230;51.502;7.108;2024-03-02T21:53:12;7.78;;;4.57;;
31618;SDS011;18230;51.502;7.108;2024-03-02T21:58:13;7.80;;;3.92;;
31618;SDS011;18230;51.502;7.108;2024-03-02T22:03:14;10.30;;;5.40;;
31618;SDS011;18230;51.502;7.108;2024-03-02T22:08:15;11.40;;;4.90;;
31618;SDS011;18230;51.502;7.108;2024-03-02T22:13:15;7.63;;;4.25;;
31618;SDS011;18230;51.502;7.108;2024-03-02T22:18:16;7.00;;;3.85;;
31618;SDS011;18230;51.502;7.108;2024-03-02T22:23:16;9.25;;;5.28;;
31618;SDS011;18230;51.502;7.108;2024-03-02T22:28:17;12.02;;;4.63;;
31618;SDS011;18230;51.502;7.108;2024-03-02T22:33:17;8.05;;;4.50;;
31618;SDS011;18230;51.502;7.108;2024-03-02T22:38:18;11.05;;;4.85;;
31618;SDS011;18230;51.502;7.108;2024-03-02T22:43:19;8.15;;;4.07;;
31618;SDS011;18230;51.502;7.108;2024-03-02T22:48:20;9.15;;;4.32;;
31618;SDS011;18230;51.502;7.108;2024-03-02T22:53:21;7.50;;;4.00;;
31618;SDS011;18230;51.502;7.108;2024-03-02T22:58:23;9.57;;;4.50;;
31618;SDS011;18230;51.502;7.108;2024-03-02T23:03:24;8.02;;;4.40;;
31618;SDS011;18230;51.502;7.108;2024-03-02T23:08:25;10.35;;;5.18;;
31618;SDS011;18230;51.502;7.108;2024-03-02T23:13:27;27.25;;;5.75;;
31618;SDS011;18230;51.502;7.108;2024-03-02T23:18:32;6.47;;;4.05;;
31618;SDS011;18230;51.502;7.108;2024-03-02T23:23:35;13.05;;;4.57;;
31618;SDS011;18230;51.502;7.108;2024-03-02T23:28:38;16.60;;;5.35;;
31618;SDS011;18230;51.502;7.108;2024-03-02T23:33:38;6.47;;;4.57;;
31618;SDS011;18230;51.502;7.108;2024-03-02T23:38:43;7.65;;;4.95;;
31618;SDS011;18230;51.502;7.108;2024-03-02T23:43:44;8.82;;;5.57;;
31618;SDS011;18230;51.502;7.108;2024-03-02T23:48:44;7.57;;;4.38;;
31618;SDS011;18230;51.502;7.108;2024-03-02T23:53:45;8.07;;;4.05;;
31618;SDS011;18230;51.502;7.108;2024-03-02T23:58:46;9.32;;;4.72;;
